Time;durP1;ratioP1;P1;durP2;ratioP2;P2;SDS_P1;SDS_P2;PMS_P1;PMS_P2;Temp;Humidity;BMP_temperature;BMP_pressure;BME280_temperature;BME280_humidity;BME280_pressure;Samples;Min_cycle;Max_cycle;Signal;HPM_P1;HPM_P2
2022/04/01 00:00:18;;;;;;;6.30;2.90;;;;;;;-0.44;100.00;97788.20;103529;1300;24300;-25
2022/04/01 00:02:44;;;;;;;5.40;2.40;;;;;;;-0.46;100.00;97785.02;103453;1300;24212;-27
2022/04/01 00:05:11;;;;;;;3.90;2.50;;;;;;;-0.49;100.00;97784.48;103529;1300;24355;-30
2022/04/01 00:07:38;;;;;;;4.90;3.50;;;;;;;-0.50;100.00;97785.68;103525;1300;24328;-30
2022/04/01 00:10:05;;;;;;;4.80;3.40;;;;;;;-0.49;100.00;97779.25;103619;1300;22948;-30
2022/04/01 00:12:30;;;;;;;7.10;3.80;;;;;;;-0.49;100.00;97776.74;103487;1300;24313;-25
2022/04/01 00:14:56;;;;;;;8.20;4.40;;;;;;;-0.50;100.00;97773.66;103507;1302;22753;-31
2022/04/01 00:17:22;;;;;;;11.30;3.10;;;;;;;-0.52;100.00;97775.86;103538;1300;24197;-32
2022/04/01 00:19:49;;;;;;;5.60;5.00;;;;;;;-0.50;100.00;97776.88;103568;1299;24215;-30
2022/04/01 00:22:15;;;;;;;10.30;4.30;;;;;;;-0.49;100.00;97774.11;103519;1300;24312;-25
2022/04/01 00:24:41;;;;;;;6.80;3.60;;;;;;;-0.53;100.00;97769.66;103599;1300;24263;-25
2022/04/01 00:27:06;;;;;;;6.60;4.00;;;;;;;-0.51;100.00;97768.17;103512;1300;23600;-26
2022/04/01 00:29:32;;;;;;;7.30;4.40;;;;;;;-0.53;100.00;97766.84;103548;1300;24302;-25
2022/04/01 00:31:59;;;;;;;8.50;5.70;;;;;;;-0.56;100.00;97770.45;103487;1300;23888;-30
2022/04/01 00:34:27;;;;;;;5.00;3.00;;;;;;;-0.54;100.00;97764.59;103563;1300;22495;-25
2022/04/01 00:36:53;;;;;;;8.90;5.00;;;;;;;-0.58;100.00;97764.39;103591;1300;24253;-26
2022/04/01 00:39:20;;;;;;;5.00;3.40;;;;;;;-0.62;100.00;97761.10;103566;1300;23321;-25
2022/04/01 00:41:46;;;;;;;5.80;3.60;;;;;;;-0.59;100.00;97762.63;103599;1300;24331;-30
2022/04/01 00:44:15;;;;;;;5.20;3.70;;;;;;;-0.63;100.00;97762.72;103496;1300;23772;-25
2022/04/01 00:46:42;;;;;;;8.00;5.60;;;;;;;-0.68;100.00;97761.39;103632;1300;24215;-25
2022/04/01 00:49:08;;;;;;;10.70;6.50;;;;;;;-0.65;100.00;97754.85;103558;1300;22490;-25
2022/04/01 00:51:34;;;;;;;7.50;5.90;;;;;;;-0.61;100.00;97757.50;103584;1299;24320;-28
2022/04/01 00:53:59;;;;;;;8.30;4.40;;;;;;;-0.62;100.00;97762.52;103568;1300;22536;-29
2022/04/01 00:56:28;;;;;;;8.60;4.40;;;;;;;-0.62;100.00;97763.20;103505;1300;22594;-27
2022/04/01 00:58:53;;;;;;;11.30;6.30;;;;;;;-0.60;100.00;97760.96;103455;1300;24269;-27
2022/04/01 01:01:19;;;;;;;10.10;6.00;;;;;;;-0.61;100.00;97762.41;103535;1300;24302;-30
2022/04/01 01:03:45;;;;;;;4.80;3.40;;;;;;;-0.62;100.00;97763.77;103572;1300;24288;-30
2022/04/01 01:06:11;;;;;;;16.40;6.00;;;;;;;-0.67;100.00;97759.75;103502;1300;22495;-26
2022/04/01 01:08:37;;;;;;;7.70;5.70;;;;;;;-0.68;100.00;97760.17;103663;1300;24302;-30
2022/04/01 01:11:03;;;;;;;9.30;4.90;;;;;;;-0.70;100.00;97758.42;103563;1300;24318;-26
2022/04/01 01:13:29;;;;;;;14.00;4.00;;;;;;;-0.68;100.00;97753.37;103538;1300;24318;-30
2022/04/01 01:15:56;;;;;;;14.50;7.20;;;;;;;-0.74;100.00;97750.13;103566;1300;24423;-29
2022/04/01 01:18:22;;;;;;;8.90;6.80;;;;;;;-0.72;100.00;97745.36;103454;1302;24276;-25
2022/04/01 01:20:48;;;;;;;5.90;4.70;;;;;;;-0.75;100.00;97743.74;103532;1300;23930;-25
2022/04/01 01:23:13;;;;;;;6.50;5.10;;;;;;;-0.77;100.00;97742.06;103541;1300;24271;-30
2022/04/01 01:25:39;;;;;;;6.10;4.60;;;;;;;-0.75;100.00;97741.30;103515;1300;24255;-25
2022/04/01 01:28:06;;;;;;;5.30;2.70;;;;;;;-0.77;100.00;97740.91;103555;1300;24221;-29
2022/04/01 01:30:32;;;;;;;12.80;7.40;;;;;;;-0.79;100.00;97742.40;103574;1300;23610;-27
2022/04/01 01:32:58;;;;;;;9.80;6.20;;;;;;;-0.78;100.00;97741.39;103583;1300;24302;-26
2022/04/01 01:35:24;;;;;;;10.20;6.40;;;;;;;-0.78;100.00;97741.54;103510;1300;24246;-30
2022/04/01 01:37:50;;;;;;;7.70;5.80;;;;;;;-0.80;100.00;97735.64;103563;1300;23856;-26
2022/04/01 01:40:16;;;;;;;8.80;5.70;;;;;;;-0.80;100.00;97734.27;103516;1300;24302;-25
2022/04/01 01:42:41;;;;;;;10.10;6.50;;;;;;;-0.83;100.00;97727.70;103556;1300;24244;-26
2022/04/01 01:45:08;;;;;;;8.40;5.30;;;;;;;-0.83;100.00;97724.92;103531;1300;24222;-25
2022/04/01 01:47:34;;;;;;;7.00;6.00;;;;;;;-0.85;100.00;97724.64;103632;1302;22499;-27
2022/04/01 01:54:58;;;;;;;12.10;7.40;;;;;;;-0.78;100.00;97716.23;103550;1300;24218;-30
2022/04/01 01:57:24;;;;;;;8.80;5.70;;;;;;;-0.84;100.00;97713.83;103640;1300;24253;-25
2022/04/01 01:59:51;;;;;;;4.70;3.10;;;;;;;-0.85;100.00;97714.59;103567;1300;24235;-30
2022/04/01 02:02:18;;;;;;;7.60;3.50;;;;;;;-0.85;100.00;97715.85;103456;1300;24234;-25
2022/04/01 02:04:43;;;;;;;11.40;5.30;;;;;;;-0.83;100.00;97715.28;103561;1300;25432;-29
2022/04/01 02:07:10;;;;;;;5.80;3.50;;;;;;;-0.92;100.00;97716.27;103551;1300;24219;-25
2022/04/01 02:09:36;;;;;;;19.40;8.10;;;;;;;-0.89;100.00;97721.34;103572;1300;24236;-25
2022/04/01 02:12:02;;;;;;;9.30;4.70;;;;;;;-0.90;100.00;97728.29;103577;1300;24242;-27
2022/04/01 02:14:30;;;;;;;8.10;4.00;;;;;;;-0.87;100.00;97729.77;103600;1300;24413;-30
2022/04/01 02:16:57;;;;;;;5.70;4.40;;;;;;;-0.90;100.00;97727.04;103505;1300;24362;-25
2022/04/01 02:19:23;;;;;;;8.80;3.10;;;;;;;-0.94;100.00;97721.86;103528;1300;24315;-30
2022/04/01 02:21:51;;;;;;;11.70;4.30;;;;;;;-0.97;100.00;97718.02;103352;1302;24295;-31
2022/04/01 02:24:18;;;;;;;5.80;2.20;;;;;;;-1.01;100.00;97719.84;103631;1300;23642;-31
2022/04/01 02:26:47;;;;;;;6.40;3.70;;;;;;;-1.02;100.00;97717.75;103651;1300;22944;-25
2022/04/01 02:29:15;;;;;;;3.20;2.00;;;;;;;-1.04;100.00;97719.43;103530;1300;24403;-25
2022/04/01 02:31:43;;;;;;;3.70;2.80;;;;;;;-1.06;100.00;97718.98;103558;1300;24247;-24
2022/04/01 02:34:08;;;;;;;7.90;3.80;;;;;;;-1.08;100.00;97715.67;103597;1300;24218;-29
2022/04/01 02:36:34;;;;;;;6.80;4.20;;;;;;;-1.11;100.00;97717.01;103439;1300;24062;-25
2022/04/01 02:39:01;;;;;;;5.60;4.40;;;;;;;-1.08;100.00;97714.09;103575;1302;22508;-30
2022/04/01 02:41:26;;;;;;;9.80;2.60;;;;;;;-1.10;100.00;97715.54;103540;1300;23791;-30
2022/04/01 02:44:08;;;;;;;7.10;4.10;;;;;;;-1.14;100.00;97716.30;103453;1300;24306;-25
2022/04/01 02:46:39;;;;;;;6.00;3.20;;;;;;;-1.20;100.00;97711.79;103415;1300;24252;-30
2022/04/01 02:49:06;;;;;;;6.60;3.70;;;;;;;-1.16;100.00;97709.11;103543;1302;22500;-30
2022/04/01 02:51:36;;;;;;;6.80;3.70;;;;;;;-1.11;100.00;97711.63;103470;1300;24291;-31
2022/04/01 02:54:03;;;;;;;7.10;2.50;;;;;;;-1.13;100.00;97716.34;103615;1300;25228;-30
2022/04/01 02:56:31;;;;;;;7.70;3.70;;;;;;;-1.14;100.00;97712.61;103418;1300;24248;-29
2022/04/01 02:58:57;;;;;;;3.10;2.40;;;;;;;-1.12;100.00;97716.59;103561;1301;24227;-29
2022/04/01 03:01:23;;;;;;;5.00;2.80;;;;;;;-1.12;100.00;97716.80;103533;1302;23607;-29
2022/04/01 03:03:49;;;;;;;7.40;3.90;;;;;;;-1.14;100.00;97720.02;103502;1300;24301;-29
2022/04/01 03:06:15;;;;;;;5.10;2.80;;;;;;;-1.06;100.00;97721.80;103538;1302;24238;-24
2022/04/01 03:08:42;;;;;;;6.80;4.40;;;;;;;-1.15;100.00;97715.41;103510;1302;22770;-29
2022/04/01 03:11:08;;;;;;;10.50;3.70;;;;;;;-1.17;100.00;97715.17;103541;1300;24286;-30
2022/04/01 03:13:33;;;;;;;6.70;3.10;;;;;;;-1.15;100.00;97714.79;103576;1300;24213;-25
2022/04/01 03:15:59;;;;;;;7.10;5.00;;;;;;;-1.19;100.00;97712.80;103538;1300;24266;-30
2022/04/01 03:18:25;;;;;;;4.80;3.60;;;;;;;-1.22;100.00;97718.72;103550;1300;24460;-29
2022/04/01 03:20:50;;;;;;;6.10;2.60;;;;;;;-1.24;100.00;97710.10;103516;1300;24211;-27
2022/04/01 03:23:16;;;;;;;5.80;5.00;;;;;;;-1.28;100.00;97715.70;103524;1302;24260;-25
2022/04/01 03:25:42;;;;;;;7.30;3.90;;;;;;;-1.24;100.00;97715.44;103578;1300;24244;-25
2022/04/01 03:28:07;;;;;;;4.50;2.40;;;;;;;-1.23;100.00;97720.11;103595;1300;24277;-29
2022/04/01 03:30:33;;;;;;;5.50;4.80;;;;;;;-1.23;100.00;97716.70;103565;1302;23598;-25
2022/04/01 03:33:00;;;;;;;4.90;3.40;;;;;;;-1.29;100.00;97717.41;103567;1300;24218;-29
2022/04/01 03:35:27;;;;;;;5.70;3.50;;;;;;;-1.35;100.00;97722.07;103578;1301;22500;-29
2022/04/01 03:37:53;;;;;;;6.40;3.50;;;;;;;-1.34;100.00;97723.05;103551;1300;24003;-29
2022/04/01 03:40:21;;;;;;;4.60;3.80;;;;;;;-1.36;100.00;97725.20;103455;1302;22518;-25
2022/04/01 03:42:50;;;;;;;7.20;4.50;;;;;;;-1.34;100.00;97727.08;103600;1300;24414;-26
2022/04/01 03:45:17;;;;;;;5.00;3.80;;;;;;;-1.36;100.00;97727.94;103585;1300;23607;-25
2022/04/01 03:47:44;;;;;;;5.60;4.50;;;;;;;-1.46;100.00;97728.60;103562;1302;22500;-25
2022/04/01 03:50:10;;;;;;;3.80;1.90;;;;;;;-1.45;100.00;97727.42;103540;1300;24247;-25
2022/04/01 03:52:36;;;;;;;7.50;4.50;;;;;;;-1.47;100.00;97732.81;103569;1301;24253;-29
2022/04/01 03:55:04;;;;;;;5.80;4.20;;;;;;;-1.42;100.00;97736.84;103544;1300;24220;-25
2022/04/01 03:57:34;;;;;;;4.50;3.50;;;;;;;-1.41;100.00;97739.34;103563;1300;24338;-30
2022/04/01 04:00:00;;;;;;;5.50;3.90;;;;;;;-1.46;100.00;97744.09;103553;1300;24344;-30
2022/04/01 04:02:26;;;;;;;3.90;3.50;;;;;;;-1.42;100.00;97745.01;103507;1301;24068;-30
2022/04/01 04:04:54;;;;;;;6.80;5.00;;;;;;;-1.41;100.00;97742.38;103503;1302;24160;-29
2022/04/01 04:07:20;;;;;;;11.70;5.50;;;;;;;-1.47;100.00;97739.95;103463;1300;24364;-29
2022/04/01 04:09:46;;;;;;;6.30;4.40;;;;;;;-1.47;100.00;97738.52;103560;1300;24327;-27
2022/04/01 04:12:13;;;;;;;9.20;6.00;;;;;;;-1.51;100.00;97738.48;103448;1299;24213;-27
2022/04/01 04:14:41;;;;;;;8.10;5.60;;;;;;;-1.48;100.00;97736.86;103196;1300;24267;-25
2022/04/01 04:17:14;;;;;;;8.00;4.20;;;;;;;-1.48;100.00;97732.69;103594;1300;24259;-26
2022/04/01 04:19:47;;;;;;;4.10;3.20;;;;;;;-1.49;100.00;97732.15;103488;1301;25464;-29
2022/04/01 04:22:14;;;;;;;12.30;6.00;;;;;;;-1.51;100.00;97732.67;103575;1302;23882;-25
2022/04/01 04:24:43;;;;;;;10.30;4.80;;;;;;;-1.60;100.00;97730.28;103597;1300;24294;-25
2022/04/01 04:27:11;;;;;;;7.00;5.70;;;;;;;-1.64;100.00;97733.55;103563;1300;24370;-24
2022/04/01 04:29:46;;;;;;;13.40;7.80;;;;;;;-1.72;100.00;97735.21;103547;1300;24096;-29
2022/04/01 04:32:19;;;;;;;6.00;4.00;;;;;;;-1.67;100.00;97733.27;103502;1300;24365;-29
2022/04/01 04:34:45;;;;;;;4.80;2.40;;;;;;;-1.68;100.00;97735.13;103605;1301;24439;-25
2022/04/01 04:37:11;;;;;;;7.90;6.40;;;;;;;-1.70;100.00;97734.86;103568;1301;24302;-29
2022/04/01 04:39:38;;;;;;;7.00;4.10;;;;;;;-1.70;100.00;97725.85;103494;1300;22510;-29
2022/04/01 04:42:04;;;;;;;6.30;4.50;;;;;;;-1.69;100.00;97723.81;103587;1300;24369;-25
2022/04/01 04:44:30;;;;;;;7.30;4.30;;;;;;;-1.77;100.00;97725.92;103429;1302;22503;-29
2022/04/01 04:46:58;;;;;;;13.00;5.80;;;;;;;-1.77;100.00;97730.30;103592;1300;22640;-29
2022/04/01 04:49:27;;;;;;;5.20;4.60;;;;;;;-1.79;100.00;97735.55;103599;1300;24302;-29
2022/04/01 04:51:53;;;;;;;5.50;3.50;;;;;;;-1.72;100.00;97734.00;103509;1302;24254;-25
2022/04/01 04:54:19;;;;;;;8.10;5.70;;;;;;;-1.74;100.00;97737.03;103560;1300;25184;-29
2022/04/01 04:56:45;;;;;;;15.50;9.50;;;;;;;-1.69;100.00;97741.94;103426;1302;24308;-28
2022/04/01 04:59:10;;;;;;;12.80;7.30;;;;;;;-1.71;100.00;97734.77;103542;1300;22738;-25
2022/04/01 05:01:40;;;;;;;4.90;4.00;;;;;;;-1.73;100.00;97740.02;103546;1300;24433;-25
2022/04/01 05:04:06;;;;;;;11.10;7.60;;;;;;;-1.84;100.00;97742.08;103518;1301;24368;-29
2022/04/01 05:06:39;;;;;;;10.00;7.00;;;;;;;-1.74;100.00;97738.97;103575;1300;24248;-25
2022/04/01 05:09:10;;;;;;;8.80;6.20;;;;;;;-1.78;100.00;97741.61;103441;1301;24180;-29
2022/04/01 05:11:43;;;;;;;11.50;6.90;;;;;;;-1.78;100.00;97746.08;103584;1300;24248;-31
2022/04/01 05:14:18;;;;;;;7.30;5.10;;;;;;;-1.79;100.00;97748.11;103579;1300;22779;-26
2022/04/01 05:16:44;;;;;;;5.50;4.50;;;;;;;-1.81;100.00;97751.99;103534;1300;24279;-29
2022/04/01 05:19:12;;;;;;;7.40;5.70;;;;;;;-1.78;100.00;97747.79;103568;1300;24303;-29
2022/04/01 05:21:41;;;;;;;8.20;5.40;;;;;;;-1.76;100.00;97744.75;103612;1300;22724;-29
2022/04/01 05:24:12;;;;;;;11.40;8.60;;;;;;;-1.76;100.00;97750.21;103578;1301;24243;-28
2022/04/01 05:26:40;;;;;;;13.60;9.70;;;;;;;-1.78;100.00;97753.74;103616;1302;22499;-25
2022/04/01 05:29:13;;;;;;;8.50;6.00;;;;;;;-1.69;100.00;97754.60;103601;1300;24252;-28
2022/04/01 05:31:46;;;;;;;11.50;5.90;;;;;;;-1.74;100.00;97750.58;103619;1300;25399;-29
2022/04/01 05:34:16;;;;;;;7.50;5.90;;;;;;;-1.74;100.00;97742.13;103653;1302;24234;-27
2022/04/01 05:36:42;;;;;;;11.90;6.60;;;;;;;-1.70;100.00;97745.06;103551;1300;25342;-31
2022/04/01 05:39:07;;;;;;;23.30;8.80;;;;;;;-1.70;100.00;97746.73;103604;1302;24128;-29
2022/04/01 05:41:33;;;;;;;8.20;6.80;;;;;;;-1.67;100.00;97752.31;103545;1302;23744;-25
2022/04/01 05:43:59;;;;;;;10.90;7.20;;;;;;;-1.70;100.00;97750.95;103570;1300;24247;-24
2022/04/01 05:46:25;;;;;;;5.40;3.00;;;;;;;-1.75;100.00;97753.92;103542;1300;24422;-29
2022/04/01 05:48:53;;;;;;;6.00;4.50;;;;;;;-1.72;100.00;97751.92;103648;1300;24192;-26
2022/04/01 05:51:19;;;;;;;9.10;4.80;;;;;;;-1.67;100.00;97753.69;103543;1301;24230;-26
2022/04/01 05:53:47;;;;;;;8.40;3.30;;;;;;;-1.76;100.00;97754.65;103534;1301;24212;-29
2022/04/01 05:56:14;;;;;;;8.10;4.30;;;;;;;-1.79;100.00;97752.96;103638;1301;24250;-29
2022/04/01 05:58:40;;;;;;;8.10;5.20;;;;;;;-1.84;100.00;97757.50;103559;1302;25219;-25
2022/04/01 06:01:11;;;;;;;5.00;3.90;;;;;;;-1.83;100.00;97758.69;103516;1300;24090;-28
2022/04/01 06:03:42;;;;;;;6.00;3.70;;;;;;;-1.74;100.00;97757.77;103508;1300;22586;-30
2022/04/01 06:06:14;;;;;;;7.40;5.70;;;;;;;-1.71;100.00;97755.98;103596;1300;22839;-30
2022/04/01 06:09:14;;;;;;;6.30;5.40;;;;;;;-1.63;100.00;97754.83;103589;1300;24225;-29
2022/04/01 06:11:45;;;;;;;4.90;4.10;;;;;;;-1.67;100.00;97753.27;103597;1300;24267;-25
2022/04/01 06:14:21;;;;;;;12.40;4.60;;;;;;;-1.75;100.00;97757.25;103601;1300;24245;-25
2022/04/01 06:16:49;;;;;;;6.30;5.10;;;;;;;-1.67;100.00;97758.69;103518;1301;24353;-25
2022/04/01 06:19:21;;;;;;;16.70;4.40;;;;;;;-1.64;100.00;97763.21;103547;1302;24270;-29
2022/04/01 06:21:48;;;;;;;8.80;4.80;;;;;;;-1.67;100.00;97761.69;103567;1302;25940;-26
2022/04/01 06:24:25;;;;;;;4.20;3.80;;;;;;;-1.66;100.00;97762.34;103435;1302;22511;-31
2022/04/01 06:26:57;;;;;;;5.90;5.20;;;;;;;-1.66;100.00;97762.52;103437;1302;24241;-29
2022/04/01 06:29:31;;;;;;;7.40;5.40;;;;;;;-1.69;100.00;97757.38;103576;1300;22776;-29
2022/04/01 06:32:05;;;;;;;10.40;6.90;;;;;;;-1.70;100.00;97761.86;103516;1301;24213;-29
2022/04/01 06:34:40;;;;;;;4.80;3.50;;;;;;;-1.60;100.00;97767.33;103559;1301;25224;-29
2022/04/01 06:37:07;;;;;;;7.70;6.70;;;;;;;-1.57;100.00;97768.63;103576;1300;22508;-29
2022/04/01 06:39:33;;;;;;;10.60;4.60;;;;;;;-1.54;100.00;97769.64;103550;1300;24249;-28
2022/04/01 06:41:59;;;;;;;8.80;5.60;;;;;;;-1.66;100.00;97770.90;103606;1300;24294;-30
2022/04/01 06:44:25;;;;;;;5.90;3.50;;;;;;;-1.65;100.00;97767.70;103448;1302;24315;-24
2022/04/01 06:46:51;;;;;;;7.00;5.60;;;;;;;-1.65;100.00;97765.20;103573;1300;24222;-29
2022/04/01 06:49:18;;;;;;;7.60;5.10;;;;;;;-1.58;100.00;97759.73;103569;1300;24218;-29
2022/04/01 06:51:45;;;;;;;4.40;3.00;;;;;;;-1.58;100.00;97761.17;103489;1302;24657;-29
2022/04/01 06:54:11;;;;;;;10.50;7.20;;;;;;;-1.51;100.00;97766.93;103567;1300;22543;-29
2022/04/01 06:56:37;;;;;;;11.30;6.90;;;;;;;-1.45;100.00;97768.20;103502;1302;24253;-25
2022/04/01 06:59:05;;;;;;;11.10;5.20;;;;;;;-1.36;100.00;97770.55;103570;1300;24322;-29
2022/04/01 07:01:31;;;;;;;10.30;6.20;;;;;;;-1.38;100.00;97769.05;103538;1300;23012;-25
2022/04/01 07:03:57;;;;;;;5.00;4.10;;;;;;;-1.41;100.00;97767.25;103314;1305;24324;-31
2022/04/01 07:06:24;;;;;;;4.40;3.70;;;;;;;-1.36;100.00;97764.60;103494;1300;24291;-28
2022/04/01 07:08:50;;;;;;;9.60;5.50;;;;;;;-1.44;100.00;97762.15;103560;1300;24218;-31
2022/04/01 07:11:16;;;;;;;5.10;4.50;;;;;;;-1.40;100.00;97761.73;103523;1300;24236;-25
2022/04/01 07:13:42;;;;;;;16.10;7.40;;;;;;;-1.28;100.00;97764.48;103566;1302;23064;-26
2022/04/01 07:16:10;;;;;;;8.20;4.40;;;;;;;-1.34;100.00;97761.98;103615;1300;24213;-31
2022/04/01 07:18:37;;;;;;;6.60;5.40;;;;;;;-1.39;100.00;97756.36;103545;1300;24434;-25
2022/04/01 07:21:03;;;;;;;8.20;5.90;;;;;;;-1.29;100.00;97754.56;103533;1300;24211;-29
2022/04/01 07:23:29;;;;;;;7.50;5.90;;;;;;;-1.26;100.00;97756.23;103524;1300;24008;-25
2022/04/01 07:25:54;;;;;;;8.90;6.50;;;;;;;-1.21;100.00;97759.33;103555;1301;24266;-28
2022/04/01 07:28:20;;;;;;;8.50;5.50;;;;;;;-1.15;100.00;97753.58;103546;1302;23154;-31
2022/04/01 07:30:46;;;;;;;7.20;4.30;;;;;;;-1.14;100.00;97760.02;103452;1301;23789;-31
2022/04/01 07:33:12;;;;;;;9.10;7.20;;;;;;;-1.08;100.00;97768.89;103510;1300;22623;-31
2022/04/01 07:35:37;;;;;;;9.30;6.40;;;;;;;-1.07;99.61;97769.10;103363;1302;24295;-25
2022/04/01 07:38:04;;;;;;;11.10;9.00;;;;;;;-1.15;99.37;97766.33;103559;1300;24230;-29
2022/04/01 07:40:31;;;;;;;12.00;6.70;;;;;;;-0.97;99.24;97763.80;103573;1300;24237;-29
2022/04/01 07:42:57;;;;;;;7.20;4.50;;;;;;;-0.97;99.40;97772.08;103556;1300;24217;-26
2022/04/01 07:45:23;;;;;;;7.90;4.10;;;;;;;-0.96;99.46;97773.55;103626;1302;24409;-26
2022/04/01 07:47:50;;;;;;;10.40;6.00;;;;;;;-0.96;98.92;97782.58;103570;1302;24300;-29
2022/04/01 07:50:16;;;;;;;10.20;4.40;;;;;;;-0.82;98.87;97775.07;103491;1302;22495;-25
2022/04/01 07:52:43;;;;;;;30.50;9.20;;;;;;;-0.81;98.16;97776.19;103465;1300;24365;-25
2022/04/01 07:55:10;;;;;;;34.50;10.00;;;;;;;-0.81;98.66;97775.84;103554;1302;24288;-31
2022/04/01 07:57:37;;;;;;;33.10;9.90;;;;;;;-0.74;98.21;97781.25;103455;1300;24475;-31
2022/04/01 08:00:04;;;;;;;16.70;7.70;;;;;;;-0.86;98.28;97790.55;103538;1300;24252;-25
2022/04/01 08:02:29;;;;;;;28.80;9.40;;;;;;;-0.85;98.59;97785.52;103538;1302;22985;-29
2022/04/01 08:04:55;;;;;;;31.60;11.10;;;;;;;-0.88;98.14;97795.02;103471;1300;24200;-30
2022/04/01 08:07:22;;;;;;;33.90;11.40;;;;;;;-0.74;98.47;97789.08;103529;1300;24282;-29
2022/04/01 08:09:49;;;;;;;21.30;8.90;;;;;;;-0.64;97.98;97793.86;103510;1300;23631;-25
2022/04/01 08:12:15;;;;;;;12.50;5.20;;;;;;;-0.65;97.71;97792.08;103542;1302;23761;-29
2022/04/01 08:14:42;;;;;;;12.10;6.70;;;;;;;-0.67;97.09;97794.55;103568;1302;24318;-29
2022/04/01 08:17:11;;;;;;;13.10;5.60;;;;;;;-0.85;97.54;97799.78;103447;1300;24345;-30
2022/04/01 08:19:39;;;;;;;12.50;7.60;;;;;;;-0.83;97.65;97799.15;103628;1302;26109;-27
2022/04/01 08:22:05;;;;;;;13.70;7.40;;;;;;;-0.64;97.35;97803.89;103562;1300;23738;-25
2022/04/01 08:24:31;;;;;;;6.10;2.70;;;;;;;-0.71;96.97;97802.89;103579;1300;24381;-30
2022/04/01 08:26:59;;;;;;;8.70;6.80;;;;;;;-0.86;96.77;97808.52;103598;1300;24422;-25
2022/04/01 08:29:26;;;;;;;19.90;10.00;;;;;;;-0.79;96.96;97809.67;103515;1302;24252;-30
2022/04/01 08:31:51;;;;;;;17.00;8.90;;;;;;;-0.89;96.97;97816.61;103618;1300;24254;-26
2022/04/01 08:34:17;;;;;;;9.40;6.10;;;;;;;-0.84;97.65;97814.35;103522;1300;24212;-31
2022/04/01 08:36:43;;;;;;;9.90;6.30;;;;;;;-0.92;97.63;97812.36;103498;1302;24353;-26
2022/04/01 08:39:09;;;;;;;13.40;8.00;;;;;;;-0.84;97.71;97815.56;103480;1300;24335;-24
2022/04/01 08:41:35;;;;;;;9.50;5.10;;;;;;;-0.79;97.15;97821.51;103497;1300;24324;-31
2022/04/01 08:44:01;;;;;;;22.70;8.00;;;;;;;-0.71;96.94;97821.57;103494;1302;24254;-29
2022/04/01 08:46:27;;;;;;;20.40;10.10;;;;;;;-0.67;97.14;97827.08;103526;1301;24232;-26
2022/04/01 08:48:53;;;;;;;17.40;9.90;;;;;;;-0.69;97.37;97827.30;103536;1301;24415;-26
2022/04/01 08:51:19;;;;;;;10.60;5.90;;;;;;;-0.58;97.29;97829.98;103447;1302;22629;-31
2022/04/01 08:53:46;;;;;;;19.80;7.80;;;;;;;-0.69;96.80;97839.77;103553;1300;24307;-31
2022/04/01 08:56:12;;;;;;;7.90;5.20;;;;;;;-0.72;96.77;97837.59;103525;1300;24372;-27
2022/04/01 08:58:38;;;;;;;15.50;8.20;;;;;;;-0.71;97.10;97841.18;103545;1302;24254;-25
2022/04/01 09:01:05;;;;;;;8.70;5.60;;;;;;;-0.74;97.86;97842.20;103528;1300;22877;-29
2022/04/01 09:03:31;;;;;;;8.50;4.90;;;;;;;-0.69;97.56;97843.23;103565;1300;24343;-25
2022/04/01 09:05:59;;;;;;;7.50;5.00;;;;;;;-0.74;97.24;97844.83;103489;1302;24240;-29
2022/04/01 09:08:27;;;;;;;10.60;4.60;;;;;;;-0.70;97.50;97850.18;103646;1300;24237;-25
2022/04/01 09:10:53;;;;;;;17.20;8.70;;;;;;;-0.62;97.56;97841.61;103549;1301;24366;-29
2022/04/01 09:13:20;;;;;;;22.80;10.60;;;;;;;-0.58;97.50;97842.44;103562;1300;24202;-25
2022/04/01 09:15:47;;;;;;;20.90;8.50;;;;;;;-0.60;97.12;97842.44;103622;1300;24298;-29
2022/04/01 09:18:12;;;;;;;22.20;8.70;;;;;;;-0.55;97.35;97839.81;103597;1300;24270;-29
2022/04/01 09:20:43;;;;;;;30.40;11.70;;;;;;;-0.56;96.84;97839.98;103595;1300;24234;-30
2022/04/01 09:23:09;;;;;;;27.40;9.30;;;;;;;-0.70;96.76;97844.56;103600;1300;24349;-30
2022/04/01 09:25:35;;;;;;;23.70;10.30;;;;;;;-0.66;96.40;97845.58;103555;1300;24252;-29
2022/04/01 09:28:01;;;;;;;15.80;8.10;;;;;;;-0.81;97.14;97849.20;103553;1300;24230;-29
2022/04/01 09:30:28;;;;;;;18.50;10.10;;;;;;;-0.89;97.41;97847.30;103534;1300;24345;-30
2022/04/01 09:32:57;;;;;;;26.30;7.00;;;;;;;-0.87;97.58;97851.86;103475;1302;24238;-25
2022/04/01 09:35:25;;;;;;;20.40;9.40;;;;;;;-0.93;98.00;97851.09;103554;1302;24260;-30
2022/04/01 09:37:54;;;;;;;11.20;4.00;;;;;;;-0.77;97.69;97850.73;103587;1300;24240;-30
2022/04/01 09:40:22;;;;;;;13.40;6.20;;;;;;;-0.77;97.08;97847.30;103548;1300;24284;-25
2022/04/01 09:42:49;;;;;;;17.80;7.60;;;;;;;-0.82;96.49;97849.01;103567;1301;22622;-25
2022/04/01 09:45:18;;;;;;;16.60;7.40;;;;;;;-0.83;96.95;97846.01;103553;1300;24240;-25
2022/04/01 09:47:45;;;;;;;12.90;6.90;;;;;;;-0.78;97.07;97852.54;103614;1299;24245;-24
2022/04/01 09:50:13;;;;;;;13.80;7.00;;;;;;;-0.73;96.82;97848.60;103576;1300;24203;-31
2022/04/01 09:52:41;;;;;;;11.40;5.60;;;;;;;-0.85;97.14;97848.98;103660;1300;22518;-25
2022/04/01 09:55:07;;;;;;;15.80;7.70;;;;;;;-0.84;96.92;97847.77;103527;1300;24407;-29
2022/04/01 09:57:33;;;;;;;23.70;7.50;;;;;;;-0.81;97.07;97846.14;103586;1300;24249;-25
2022/04/01 09:59:59;;;;;;;15.00;7.90;;;;;;;-0.80;97.10;97843.21;103534;1301;24246;-25
2022/04/01 10:02:26;;;;;;;11.50;5.40;;;;;;;-0.88;97.58;97844.06;103556;1300;24253;-29
2022/04/01 10:04:54;;;;;;;16.20;8.20;;;;;;;-0.91;98.29;97843.91;103536;1300;24411;-25
2022/04/01 10:07:21;;;;;;;22.30;11.30;;;;;;;-0.78;98.39;97839.86;103467;1302;24362;-31
2022/04/01 10:09:48;;;;;;;17.50;6.90;;;;;;;-0.81;98.35;97837.71;103535;1300;24215;-26
2022/04/01 10:12:14;;;;;;;12.30;6.70;;;;;;;-0.75;98.08;97833.35;103521;1300;24016;-25
2022/04/01 10:14:40;;;;;;;12.50;5.60;;;;;;;-0.74;97.89;97843.91;103536;1300;24222;-29
2022/04/01 10:17:10;;;;;;;22.80;7.70;;;;;;;-0.69;97.35;97846.75;103578;1300;24300;-30
2022/04/01 10:19:38;;;;;;;19.40;7.70;;;;;;;-0.56;97.31;97844.16;103512;1300;24762;-31
2022/04/01 10:22:05;;;;;;;15.90;7.80;;;;;;;-0.54;97.58;97847.65;103593;1300;24660;-25
2022/04/01 10:24:37;;;;;;;12.80;6.30;;;;;;;-0.38;97.78;97842.73;103511;1300;24603;-30
2022/04/01 10:27:03;;;;;;;10.50;4.40;;;;;;;-0.33;97.30;97842.51;103541;1300;22871;-30
2022/04/01 10:29:31;;;;;;;21.50;9.40;;;;;;;-0.29;96.62;97842.98;103561;1300;24241;-30
2022/04/01 10:32:20;;;;;;;8.10;5.20;;;;;;;-0.13;96.28;97846.70;103531;1300;24327;-29
2022/04/01 10:34:46;;;;;;;6.00;4.10;;;;;;;-0.17;96.33;97836.42;103560;1300;24277;-25
2022/04/01 10:37:13;;;;;;;8.80;6.20;;;;;;;-0.09;95.79;97841.03;103288;1300;24215;-31
2022/04/01 10:39:46;;;;;;;9.70;4.70;;;;;;;-0.14;95.66;97842.42;103515;1300;24265;-25
2022/04/01 10:42:12;;;;;;;7.60;3.10;;;;;;;-0.11;95.54;97846.74;103563;1300;22839;-31
2022/04/01 10:44:44;;;;;;;13.50;6.70;;;;;;;0.08;95.90;97848.66;103617;1300;24315;-30
2022/04/01 10:47:10;;;;;;;2.70;1.50;;;;;;;0.01;95.22;97847.33;103460;1302;25189;-24
2022/04/01 10:52:05;;;;;;;10.10;5.20;;;;;;;-0.02;95.34;97850.85;103598;1300;23838;-25
2022/04/01 10:54:31;;;;;;;16.20;7.90;;;;;;;0.15;95.52;97852.96;103534;1300;24262;-32
2022/04/01 10:57:00;;;;;;;18.90;7.40;;;;;;;0.17;95.61;97853.45;103520;1300;24326;-29
2022/04/01 10:59:27;;;;;;;23.40;6.60;;;;;;;0.02;95.07;97852.52;103621;1300;22652;-29
2022/04/01 11:01:53;;;;;;;12.40;5.50;;;;;;;-0.13;94.90;97856.05;103529;1300;24260;-27
2022/04/01 11:04:19;;;;;;;10.80;4.10;;;;;;;-0.27;95.24;97858.04;103579;1300;24341;-24
2022/04/01 11:06:51;;;;;;;9.00;6.30;;;;;;;-0.23;95.34;97858.39;103563;1300;24214;-24
2022/04/01 11:09:24;;;;;;;12.40;6.90;;;;;;;-0.25;95.51;97860.30;103490;1299;24063;-31
2022/04/01 11:12:13;;;;;;;12.00;5.60;;;;;;;-0.31;95.26;97856.62;103507;1300;22819;-29
2022/04/01 11:14:59;;;;;;;19.40;8.40;;;;;;;-0.22;95.24;97856.02;103510;1302;22573;-29
2022/04/01 11:17:27;;;;;;;13.30;7.50;;;;;;;-0.32;95.76;97851.96;103514;1297;24295;-25
2022/04/01 11:19:59;;;;;;;26.60;15.40;;;;;;;-0.31;95.52;97856.23;103543;1300;24214;-26
2022/04/01 11:22:31;;;;;;;8.30;4.70;;;;;;;-0.39;96.02;97861.14;103594;1300;24327;-26
2022/04/01 11:24:57;;;;;;;9.10;5.20;;;;;;;-0.36;96.23;97858.75;103557;1300;24353;-29